createdAt,value
2023-03-01T00:02:13.619Z,13.43
2023-03-01T00:04:41.172Z,13.27
2023-03-01T00:07:08.681Z,14.05
2023-03-01T00:09:37.827Z,14.55
2023-03-01T00:12:05.726Z,13.93
2023-03-01T00:14:33.258Z,14.40
2023-03-01T00:17:00.842Z,14.15
2023-03-01T00:19:28.437Z,14.48
2023-03-01T00:21:55.971Z,14.48
2023-03-01T00:24:23.510Z,14.60
2023-03-01T00:26:54.201Z,14.77
2023-03-01T00:29:21.777Z,13.93
2023-03-01T00:31:49.359Z,15.10
2023-03-01T00:34:16.980Z,11.02
2023-03-01T00:36:44.517Z,14.15
2023-03-01T00:39:15.488Z,12.90
2023-03-01T00:41:43.432Z,13.82
2023-03-01T00:44:11.047Z,15.10
2023-03-01T00:46:38.682Z,13.85
2023-03-01T00:49:06.318Z,14.40
2023-03-01T00:51:34.049Z,14.50
2023-03-01T00:54:02.168Z,14.13
2023-03-01T00:56:30.820Z,14.63
2023-03-01T00:58:58.749Z,15.27
2023-03-01T01:01:28.326Z,14.20
2023-03-01T01:04:16.590Z,15.05
2023-03-01T01:06:45.202Z,13.48
2023-03-01T01:09:19.428Z,14.93
2023-03-01T01:11:47.891Z,14.45
2023-03-01T01:14:15.473Z,13.98
2023-03-01T01:16:43.010Z,14.07
2023-03-01T01:19:11.217Z,13.85
2023-03-01T01:21:38.803Z,15.20
2023-03-01T01:24:06.550Z,13.55
2023-03-01T01:26:34.668Z,15.25
2023-03-01T01:29:02.544Z,14.23
2023-03-01T01:31:30.668Z,14.30
2023-03-01T01:33:58.546Z,14.98
2023-03-01T01:36:26.063Z,14.75
2023-03-01T01:38:53.623Z,14.35
2023-03-01T01:41:21.619Z,14.90
2023-03-01T01:43:50.125Z,13.63
2023-03-01T01:46:21.769Z,14.50
2023-03-01T01:48:54.717Z,15.18
2023-03-01T01:51:23.845Z,15.98
2023-03-01T01:53:52.964Z,13.88
2023-03-01T01:56:20.546Z,14.70
2023-03-01T01:58:48.464Z,14.50
2023-03-01T02:01:15.995Z,13.68
2023-03-01T02:03:44.501Z,14.73
2023-03-01T02:06:32.117Z,14.30
2023-03-01T02:09:01.187Z,14.30
2023-03-01T02:11:28.932Z,16.05
2023-03-01T02:13:56.508Z,13.48
2023-03-01T02:16:24.126Z,14.23
2023-03-01T02:18:51.721Z,13.80
2023-03-01T02:21:23.113Z,10.52
2023-03-01T02:23:50.839Z,14.80
2023-03-01T02:26:20.912Z,13.43
2023-03-01T02:28:48.751Z,14.18
2023-03-01T02:31:35.955Z,14.20
2023-03-01T02:34:05.414Z,14.55
2023-03-01T02:36:34.413Z,15.13
2023-03-01T02:39:02.227Z,14.73
2023-03-01T02:41:30.282Z,14.77
2023-03-01T02:43:57.808Z,13.82
2023-03-01T02:46:26.049Z,15.02
2023-03-01T02:51:39.491Z,13.52
2023-03-01T02:54:12.698Z,14.43
2023-03-01T02:56:40.265Z,14.50
2023-03-01T02:59:07.889Z,15.20
2023-03-01T03:01:39.230Z,14.52
2023-03-01T03:04:10.786Z,15.63
2023-03-01T03:06:38.688Z,14.63
2023-03-01T03:09:06.259Z,14.52
2023-03-01T03:11:33.830Z,16.00
2023-03-01T03:14:02.489Z,14.45
2023-03-01T03:19:05.967Z,14.07
2023-03-01T03:21:34.091Z,15.15
2023-03-01T03:24:01.630Z,14.85
2023-03-01T03:26:29.785Z,14.25
2023-03-01T03:28:57.998Z,14.48
2023-03-01T03:31:25.568Z,14.02
2023-03-01T03:33:53.194Z,14.85
2023-03-01T03:36:21.616Z,15.48
2023-03-01T03:38:49.776Z,13.93
2023-03-01T03:41:17.304Z,15.48
2023-03-01T03:43:44.847Z,11.20
2023-03-01T03:46:12.590Z,11.77
2023-03-01T03:48:41.292Z,14.77
2023-03-01T03:51:09.008Z,14.18
2023-03-01T03:53:36.573Z,15.10
2023-03-01T03:56:06.542Z,14.80
2023-03-01T03:58:34.271Z,15.02
2023-03-01T04:01:01.917Z,15.80
2023-03-01T04:03:30.348Z,15.77
2023-03-01T04:06:00.908Z,14.77
2023-03-01T04:08:28.566Z,14.43
2023-03-01T04:11:00.320Z,15.00
2023-03-01T04:13:27.913Z,15.70
2023-03-01T04:15:55.710Z,14.75
2023-03-01T04:18:24.393Z,15.38
2023-03-01T04:20:53.179Z,16.48
2023-03-01T04:23:21.649Z,14.63
2023-03-01T04:25:58.489Z,16.08
2023-03-01T04:28:35.102Z,15.35
2023-03-01T04:31:14.272Z,15.05
2023-03-01T04:33:42.581Z,13.88
2023-03-01T04:36:10.329Z,13.77
2023-03-01T04:38:38.438Z,14.38
2023-03-01T04:41:09.743Z,14.85
2023-03-01T04:43:37.322Z,13.68
2023-03-01T04:46:07.032Z,15.38
2023-03-01T04:48:34.637Z,15.27
2023-03-01T04:51:02.162Z,15.52
2023-03-01T04:53:30.022Z,14.55
2023-03-01T04:55:57.708Z,14.30
2023-03-01T04:58:25.656Z,14.52
2023-03-01T05:00:53.340Z,15.38
2023-03-01T05:03:21.130Z,13.82
2023-03-01T05:05:49.238Z,16.08
2023-03-01T05:08:19.533Z,14.05
2023-03-01T05:10:47.475Z,15.30
2023-03-01T05:13:21.594Z,14.77
2023-03-01T05:15:58.972Z,15.70
2023-03-01T05:18:29.154Z,15.68
2023-03-01T05:20:59.308Z,15.88
2023-03-01T05:23:26.914Z,15.25
2023-03-01T05:25:54.419Z,15.25
2023-03-01T05:28:22.028Z,14.65
2023-03-01T05:30:52.521Z,15.23
2023-03-01T05:33:20.154Z,16.35
2023-03-01T05:35:49.524Z,15.93
2023-03-01T05:38:17.329Z,15.65
2023-03-01T05:40:45.822Z,16.90
2023-03-01T05:43:13.814Z,16.35
2023-03-01T05:45:41.618Z,15.85
2023-03-01T05:48:09.625Z,16.63
2023-03-01T05:50:37.947Z,14.77
2023-03-01T05:53:08.733Z,14.77
2023-03-01T05:55:36.410Z,15.55
2023-03-01T05:58:04.986Z,15.80
2023-03-01T06:00:32.957Z,15.57
2023-03-01T06:03:00.634Z,16.70
2023-03-01T06:05:28.237Z,15.70
2023-03-01T06:07:55.826Z,14.85
2023-03-01T06:10:23.493Z,14.60
2023-03-01T06:12:51.033Z,15.68
2023-03-01T06:15:18.608Z,15.63
2023-03-01T06:17:46.858Z,16.90
2023-03-01T06:20:21.325Z,14.77
2023-03-01T06:22:49.981Z,15.40
2023-03-01T06:25:19.122Z,15.43
2023-03-01T06:27:46.700Z,16.70
2023-03-01T06:30:14.999Z,16.25
2023-03-01T06:32:45.175Z,16.23
2023-03-01T06:35:13.253Z,15.05
2023-03-01T06:37:41.053Z,15.38
2023-03-01T06:40:09.104Z,15.50
2023-03-01T06:42:36.937Z,14.82
2023-03-01T06:45:04.853Z,15.05
2023-03-01T06:47:33.988Z,15.82
2023-03-01T06:50:01.931Z,15.98
2023-03-01T06:52:29.459Z,15.90
2023-03-01T06:54:57.035Z,15.57
2023-03-01T06:57:24.692Z,15.48
2023-03-01T06:59:52.215Z,16.00
2023-03-01T07:02:19.777Z,16.10
2023-03-01T07:04:47.299Z,16.23
2023-03-01T07:07:14.852Z,16.23
2023-03-01T07:09:42.403Z,17.27
2023-03-01T07:12:10.025Z,12.38
2023-03-01T07:14:37.558Z,15.23
2023-03-01T07:17:05.053Z,15.80
2023-03-01T07:19:32.582Z,15.57
2023-03-01T07:22:00.125Z,17.00
2023-03-01T07:24:27.739Z,15.98
2023-03-01T07:26:55.369Z,15.93
2023-03-01T07:29:22.901Z,16.38
2023-03-01T07:31:50.450Z,16.77
2023-03-01T07:34:17.969Z,16.63
2023-03-01T07:36:46.241Z,16.55
2023-03-01T07:41:41.634Z,15.45
2023-03-01T07:44:10.116Z,14.65
2023-03-01T07:46:37.660Z,16.13
2023-03-01T07:49:05.584Z,16.42
2023-03-01T07:51:33.100Z,15.60
2023-03-01T07:54:00.637Z,16.13
2023-03-01T07:56:28.253Z,17.38
2023-03-01T07:58:55.802Z,17.83
2023-03-01T08:01:23.475Z,15.68
2023-03-01T08:03:51.007Z,17.88
2023-03-01T08:06:18.689Z,16.02
2023-03-01T08:08:46.456Z,15.70
2023-03-01T08:11:14.583Z,16.92
2023-03-01T08:13:42.148Z,15.75
2023-03-01T08:16:11.813Z,16.23
2023-03-01T08:18:39.418Z,16.27
2023-03-01T08:21:07.735Z,16.00
2023-03-01T08:26:09.922Z,16.00
2023-03-01T08:28:37.528Z,16.58
2023-03-01T08:31:05.357Z,16.23
2023-03-01T08:33:32.904Z,18.05
2023-03-01T08:36:04.536Z,17.35
2023-03-01T08:38:32.102Z,17.63
2023-03-01T08:41:01.208Z,16.70
2023-03-01T08:43:28.772Z,16.77
2023-03-01T08:45:56.381Z,16.38
2023-03-01T08:48:24.045Z,11.57
2023-03-01T08:50:51.870Z,16.38
2023-03-01T08:53:19.418Z,15.45
2023-03-01T08:55:46.943Z,15.88
2023-03-01T08:58:14.512Z,17.17
2023-03-01T09:00:42.127Z,15.35
2023-03-01T09:03:10.024Z,12.40
2023-03-01T09:05:37.760Z,15.10
2023-03-01T09:08:05.464Z,16.33
2023-03-01T09:10:33.038Z,11.70
2023-03-01T09:13:00.565Z,15.88
2023-03-01T09:15:28.082Z,16.40
2023-03-01T09:17:55.713Z,16.33
2023-03-01T09:20:23.279Z,12.85
2023-03-01T09:22:50.827Z,12.52
2023-03-01T09:25:18.338Z,15.85
2023-03-01T09:27:45.856Z,17.10
2023-03-01T09:30:13.577Z,16.83
2023-03-01T09:32:43.579Z,15.13
2023-03-01T09:35:11.128Z,17.23
2023-03-01T09:37:38.700Z,17.25
2023-03-01T09:40:07.221Z,16.48
2023-03-01T09:42:35.672Z,17.63
2023-03-01T09:45:07.426Z,17.58
2023-03-01T09:47:35.965Z,16.45
2023-03-01T09:50:06.620Z,15.55
2023-03-01T09:52:46.033Z,15.35
2023-03-01T09:55:17.326Z,16.67
2023-03-01T09:57:49.880Z,16.27
2023-03-01T10:00:19.315Z,15.07
2023-03-01T10:02:48.732Z,17.27
2023-03-01T10:05:25.411Z,16.08
2023-03-01T10:08:04.475Z,15.95
2023-03-01T10:10:36.328Z,16.70
2023-03-01T10:13:12.442Z,17.48
2023-03-01T10:15:41.619Z,17.90
2023-03-01T10:18:14.221Z,16.33
2023-03-01T10:21:00.768Z,16.95
2023-03-01T10:23:31.585Z,15.50
2023-03-01T10:26:11.091Z,15.93
2023-03-01T10:28:44.822Z,16.48
2023-03-01T10:31:20.564Z,14.63
2023-03-01T10:33:52.335Z,15.18
2023-03-01T10:36:19.904Z,16.65
2023-03-01T10:38:53.258Z,16.45
2023-03-01T10:41:20.998Z,16.25
2023-03-01T10:43:52.480Z,15.85
2023-03-01T10:46:27.282Z,15.98
2023-03-01T10:49:15.395Z,16.38
2023-03-01T10:54:28.798Z,16.85
2023-03-01T10:56:57.216Z,15.90
2023-03-01T10:59:27.487Z,16.67
2023-03-01T11:02:15.052Z,15.27
2023-03-01T11:05:09.162Z,14.25
2023-03-01T11:07:48.021Z,14.88
2023-03-01T11:10:18.719Z,15.32
2023-03-01T11:12:46.258Z,14.30
2023-03-01T11:15:24.883Z,14.77
2023-03-01T11:17:55.783Z,14.68
2023-03-01T11:20:38.628Z,15.07
2023-03-01T11:23:07.562Z,15.35
2023-03-01T11:25:37.116Z,15.38
2023-03-01T11:28:05.301Z,16.20
2023-03-01T11:30:34.570Z,15.80
2023-03-01T11:33:05.270Z,14.93
2023-03-01T11:35:34.185Z,14.43
2023-03-01T11:38:20.604Z,15.55
2023-03-01T11:41:06.580Z,15.20
2023-03-01T11:43:51.092Z,15.95
2023-03-01T11:46:21.768Z,15.70
2023-03-01T11:48:55.437Z,14.80
2023-03-01T11:51:35.729Z,16.15
2023-03-01T11:54:20.357Z,14.93
2023-03-01T11:57:02.524Z,15.98
2023-03-01T11:59:39.426Z,16.98
2023-03-01T12:02:06.978Z,16.17
2023-03-01T12:04:53.121Z,16.20
2023-03-01T12:07:39.388Z,16.67
2023-03-01T12:10:23.926Z,15.40
2023-03-01T12:13:06.254Z,15.48
2023-03-01T12:15:49.750Z,14.43
2023-03-01T12:18:32.730Z,15.57
2023-03-01T12:21:03.214Z,15.85
2023-03-01T12:24:00.136Z,15.43
2023-03-01T12:26:27.734Z,15.73
2023-03-01T12:29:09.707Z,16.17
2023-03-01T12:31:52.791Z,15.52
2023-03-01T12:34:35.738Z,15.65
2023-03-01T12:37:03.244Z,15.93
2023-03-01T12:39:37.478Z,16.55
2023-03-01T12:42:05.080Z,15.13
2023-03-01T12:44:42.675Z,17.42
2023-03-01T12:47:30.351Z,16.80
2023-03-01T12:49:59.405Z,15.98
2023-03-01T12:52:41.041Z,17.20
2023-03-01T12:55:10.990Z,16.23
2023-03-01T12:57:43.048Z,17.08
2023-03-01T13:00:10.637Z,16.63
2023-03-01T13:02:48.542Z,16.88
2023-03-01T13:07:45.193Z,16.02
2023-03-01T13:10:15.744Z,16.05
2023-03-01T13:12:53.268Z,16.23
2023-03-01T13:15:24.009Z,16.92
2023-03-01T13:17:52.228Z,17.17
2023-03-01T13:20:23.423Z,16.35
2023-03-01T13:22:54.933Z,17.95
2023-03-01T13:25:25.694Z,17.95
2023-03-01T13:27:55.217Z,16.52
2023-03-01T13:30:35.119Z,17.60
2023-03-01T13:33:35.186Z,17.23
2023-03-01T13:36:02.793Z,17.20
2023-03-01T13:38:39.442Z,17.33
2023-03-01T13:41:07.027Z,17.70
2023-03-01T13:43:36.240Z,17.85
2023-03-01T13:46:09.406Z,16.60
2023-03-01T13:48:39.270Z,17.38
2023-03-01T13:51:08.565Z,15.65
2023-03-01T13:53:37.301Z,17.05
2023-03-01T13:56:09.048Z,17.15
2023-03-01T13:58:45.902Z,17.38
2023-03-01T14:01:27.002Z,17.73
2023-03-01T14:03:54.654Z,17.00
2023-03-01T14:06:23.166Z,16.60
2023-03-01T14:08:51.502Z,16.27
2023-03-01T14:11:31.382Z,16.38
2023-03-01T14:13:58.970Z,16.60
2023-03-01T14:16:33.716Z,16.75
2023-03-01T14:19:01.525Z,15.88
2023-03-01T14:21:29.083Z,15.13
2023-03-01T14:23:56.603Z,16.30
2023-03-01T14:26:24.281Z,15.85
2023-03-01T14:28:51.822Z,17.10
2023-03-01T14:31:41.057Z,16.00
2023-03-01T14:34:20.285Z,15.10
2023-03-01T14:36:47.789Z,15.77
2023-03-01T14:39:22.357Z,15.43
2023-03-01T14:41:49.908Z,15.30
2023-03-01T14:44:19.949Z,13.95
2023-03-01T14:46:47.740Z,15.02
2023-03-01T14:49:19.141Z,14.73
2023-03-01T14:51:54.064Z,14.00
2023-03-01T14:54:22.791Z,14.05
2023-03-01T14:56:50.389Z,14.80
2023-03-01T14:59:17.924Z,15.57
2023-03-01T15:01:45.558Z,14.48
2023-03-01T15:04:14.446Z,14.95
2023-03-01T15:06:42.253Z,14.45
2023-03-01T15:09:13.152Z,14.73
2023-03-01T15:11:44.425Z,14.63
2023-03-01T15:14:28.287Z,14.50
2023-03-01T15:16:55.917Z,14.10
2023-03-01T15:19:23.454Z,14.02
2023-03-01T15:21:51.009Z,13.18
2023-03-01T15:24:22.356Z,14.38
2023-03-01T15:26:56.035Z,13.60
2023-03-01T15:29:25.025Z,14.90
2023-03-01T15:32:04.843Z,13.85
2023-03-01T15:34:33.216Z,14.27
2023-03-01T15:37:02.143Z,14.65
2023-03-01T15:39:38.806Z,13.02
2023-03-01T15:42:06.555Z,14.27
2023-03-01T15:44:43.004Z,14.27
2023-03-01T15:47:30.400Z,14.77
2023-03-01T15:49:58.865Z,14.20
2023-03-01T15:52:30.626Z,14.57
2023-03-01T15:55:01.878Z,14.88
2023-03-01T15:57:29.484Z,15.60
2023-03-01T15:59:56.998Z,15.68
2023-03-01T16:02:25.259Z,14.25
2023-03-01T16:07:22.170Z,15.68
2023-03-01T16:09:49.677Z,15.32
2023-03-01T16:12:17.280Z,13.47
2023-03-01T16:14:44.900Z,13.73
2023-03-01T16:17:12.524Z,13.73
2023-03-01T16:19:40.052Z,14.55
2023-03-01T16:22:07.573Z,14.50
2023-03-01T16:24:36.815Z,13.23
2023-03-01T16:27:04.664Z,14.23
2023-03-01T16:29:32.472Z,13.55
2023-03-01T16:32:03.168Z,13.55
2023-03-01T16:34:30.942Z,14.23
2023-03-01T16:36:58.446Z,14.50
2023-03-01T16:39:26.118Z,13.07
2023-03-01T16:41:53.638Z,13.63
2023-03-01T16:44:21.238Z,12.07
2023-03-01T16:46:49.068Z,14.38
2023-03-01T16:49:19.203Z,13.65
2023-03-01T16:51:48.693Z,13.45
2023-03-01T16:54:16.378Z,14.23
2023-03-01T16:56:44.208Z,12.77
2023-03-01T16:59:11.714Z,13.60
2023-03-01T17:01:41.676Z,12.57
2023-03-01T17:04:12.032Z,13.30
2023-03-01T17:06:39.562Z,12.80
2023-03-01T17:09:07.162Z,12.73
2023-03-01T17:11:34.976Z,13.93
2023-03-01T17:14:02.540Z,12.20
2023-03-01T17:16:30.131Z,14.90
2023-03-01T17:18:57.792Z,11.82
2023-03-01T17:21:25.446Z,13.40
2023-03-01T17:23:53.287Z,12.45
2023-03-01T17:26:20.832Z,12.63
2023-03-01T17:28:52.160Z,11.57
2023-03-01T17:31:20.135Z,14.23
2023-03-01T17:33:47.757Z,11.82
2023-03-01T17:36:15.255Z,11.82
2023-03-01T17:38:42.802Z,12.65
2023-03-01T17:41:12.074Z,12.35
2023-03-01T17:43:39.741Z,12.02
2023-03-01T17:46:07.421Z,11.15
2023-03-01T17:48:35.082Z,11.65
2023-03-01T17:51:06.393Z,11.40
2023-03-01T17:53:33.945Z,11.38
2023-03-01T17:56:02.310Z,12.82
2023-03-01T18:00:57.281Z,11.98
2023-03-01T18:03:24.877Z,12.63
2023-03-01T18:05:52.440Z,12.35
2023-03-01T18:08:20.012Z,11.50
2023-03-01T18:10:47.925Z,13.02
2023-03-01T18:13:15.457Z,13.52
2023-03-01T18:15:43.008Z,12.25
2023-03-01T18:18:10.650Z,12.85
2023-03-01T18:20:38.346Z,8.73
2023-03-01T18:23:06.640Z,12.55
2023-03-01T18:28:01.630Z,12.25
2023-03-01T18:30:29.304Z,12.73
2023-03-01T18:32:56.804Z,13.63
2023-03-01T18:35:24.598Z,17.10
2023-03-01T18:37:52.222Z,20.80
2023-03-01T18:40:19.891Z,22.35
2023-03-01T18:42:47.404Z,21.05
2023-03-01T18:45:16.963Z,21.95
2023-03-01T18:47:44.488Z,21.88
2023-03-01T18:50:12.300Z,20.95
2023-03-01T18:52:39.843Z,21.02
2023-03-01T18:55:07.433Z,22.17
2023-03-01T18:57:35.111Z,21.73
2023-03-01T19:00:03.948Z,16.40
2023-03-01T19:02:31.498Z,21.65
2023-03-01T19:04:59.050Z,21.60
2023-03-01T19:07:26.572Z,15.00
2023-03-01T19:09:54.090Z,23.75
2023-03-01T19:12:21.633Z,21.60
2023-03-01T19:14:49.172Z,21.42
2023-03-01T19:17:16.833Z,21.60
2023-03-01T19:19:44.627Z,22.63
2023-03-01T19:22:12.882Z,22.10
2023-03-01T19:24:40.388Z,17.95
2023-03-01T19:27:07.918Z,22.02
2023-03-01T19:29:35.538Z,26.85
2023-03-01T19:32:03.102Z,17.52
2023-03-01T19:34:30.693Z,21.85
2023-03-01T19:36:58.230Z,19.50
2023-03-01T19:39:27.332Z,17.70
2023-03-01T19:41:54.990Z,16.65
2023-03-01T19:44:24.914Z,15.93
2023-03-01T19:46:53.645Z,15.95
2023-03-01T19:49:21.278Z,14.73
2023-03-01T19:51:48.813Z,14.65
2023-03-01T19:54:19.970Z,15.07
2023-03-01T19:56:47.910Z,13.98
2023-03-01T19:59:15.424Z,13.65
2023-03-01T20:01:43.236Z,12.95
2023-03-01T20:04:10.990Z,13.27
2023-03-01T20:06:38.999Z,13.25
2023-03-01T20:09:19.370Z,12.55
2023-03-01T20:11:48.428Z,13.68
2023-03-01T20:14:16.055Z,13.68
2023-03-01T20:16:43.815Z,13.20
2023-03-01T20:19:11.337Z,14.80
2023-03-01T20:21:38.913Z,14.10
2023-03-01T20:24:06.512Z,13.48
2023-03-01T20:26:34.324Z,14.65
2023-03-01T20:29:01.997Z,13.50
2023-03-01T20:31:30.014Z,13.52
2023-03-01T20:33:57.970Z,13.75
2023-03-01T20:36:25.564Z,13.65
2023-03-01T20:38:53.752Z,13.77
2023-03-01T20:41:21.359Z,13.30
2023-03-01T20:43:56.290Z,13.45
2023-03-01T20:46:23.998Z,13.60
2023-03-01T20:48:51.854Z,10.48
2023-03-01T20:51:19.628Z,13.25
2023-03-01T20:53:47.256Z,14.00
2023-03-01T20:56:15.181Z,13.30
2023-03-01T20:58:43.053Z,13.35
2023-03-01T21:01:11.768Z,14.00
2023-03-01T21:03:39.363Z,12.85
2023-03-01T21:06:07.093Z,14.40
2023-03-01T21:08:35.048Z,13.85
2023-03-01T21:11:02.624Z,13.95
2023-03-01T21:13:30.498Z,14.30
2023-03-01T21:16:03.225Z,14.35
2023-03-01T21:18:31.213Z,13.52
2023-03-01T21:21:02.145Z,13.80
2023-03-01T21:23:29.925Z,14.15
2023-03-01T21:26:23.934Z,14.65
2023-03-01T21:28:51.940Z,14.80
2023-03-01T21:31:23.693Z,14.65
2023-03-01T21:33:54.713Z,14.65
2023-03-01T21:36:22.564Z,14.20
2023-03-01T21:38:50.252Z,15.35
2023-03-01T21:41:21.963Z,14.85
2023-03-01T21:43:49.912Z,15.52
2023-03-01T21:46:21.342Z,15.38
2023-03-01T21:48:49.037Z,15.23
2023-03-01T21:51:16.904Z,11.27
2023-03-01T21:53:44.418Z,16.38
2023-03-01T21:56:15.752Z,15.80
2023-03-01T21:58:43.263Z,14.98
2023-03-01T22:01:12.001Z,14.52
2023-03-01T22:03:45.254Z,15.55
2023-03-01T22:06:19.880Z,13.43
2023-03-01T22:08:50.169Z,16.10
2023-03-01T22:11:18.304Z,15.55
2023-03-01T22:13:47.481Z,16.00
2023-03-01T22:16:15.031Z,15.63
2023-03-01T22:18:42.595Z,15.40
2023-03-01T22:21:10.985Z,15.73
2023-03-01T22:23:39.040Z,14.32
2023-03-01T22:26:06.708Z,14.55
2023-03-01T22:28:34.256Z,16.10
2023-03-01T22:31:05.270Z,15.65
2023-03-01T22:33:32.807Z,15.50
2023-03-01T22:36:00.354Z,15.15
2023-03-01T22:38:27.984Z,15.98
2023-03-01T22:40:59.289Z,10.65
2023-03-01T22:43:26.956Z,14.25
2023-03-01T22:45:54.611Z,15.70
2023-03-01T22:48:22.181Z,14.30
2023-03-01T22:50:49.708Z,11.23
2023-03-01T22:53:17.933Z,15.63
2023-03-01T22:58:12.886Z,16.90
2023-03-01T23:00:40.408Z,13.52
2023-03-01T23:03:08.120Z,14.27
2023-03-01T23:05:35.981Z,15.73
2023-03-01T23:08:03.480Z,15.95
2023-03-01T23:10:30.988Z,16.00
2023-03-01T23:12:58.502Z,16.90
2023-03-01T23:15:26.000Z,13.45
2023-03-01T23:17:53.533Z,16.58
2023-03-01T23:20:21.363Z,16.88
2023-03-01T23:22:48.878Z,15.93
2023-03-01T23:25:16.485Z,11.73
2023-03-01T23:27:43.977Z,16.42
2023-03-01T23:30:11.753Z,17.60
2023-03-01T23:32:40.782Z,17.85
2023-03-01T23:35:09.066Z,19.10
2023-03-01T23:40:06.169Z,15.43
2023-03-01T23:42:34.343Z,17.13
2023-03-01T23:45:01.885Z,17.38
2023-03-01T23:47:29.454Z,16.45
2023-03-01T23:49:57.349Z,17.85
2023-03-01T23:52:24.899Z,17.90
2023-03-01T23:54:52.612Z,18.83
2023-03-01T23:57:20.185Z,17.42
2023-03-01T23:59:47.704Z,16.63
